createdAt,value
2023-02-15T00:01:44.460Z,11.00
2023-02-15T00:04:14.801Z,10.90
2023-02-15T00:06:42.714Z,11.30
2023-02-15T00:09:11.564Z,10.90
2023-02-15T00:11:44.255Z,12.10
2023-02-15T00:14:15.184Z,11.60
2023-02-15T00:16:44.595Z,11.20
2023-02-15T00:19:14.937Z,11.50
2023-02-15T00:21:43.056Z,10.60
2023-02-15T00:24:13.358Z,10.00
2023-02-15T00:26:42.294Z,11.30
2023-02-15T00:29:11.717Z,11.90
2023-02-15T00:31:39.830Z,10.90
2023-02-15T00:34:12.401Z,11.80
2023-02-15T00:39:07.892Z,10.10
2023-02-15T00:41:37.038Z,9.90
2023-02-15T00:44:05.681Z,11.40
2023-02-15T00:46:34.345Z,11.00
2023-02-15T00:49:02.676Z,10.70
2023-02-15T00:51:30.766Z,11.80
2023-02-15T00:53:58.518Z,11.00
2023-02-15T00:56:28.666Z,11.20
2023-02-15T00:58:56.718Z,11.30
2023-02-15T01:01:24.547Z,11.30
2023-02-15T01:03:53.324Z,11.00
2023-02-15T01:06:21.020Z,11.40
2023-02-15T01:08:49.246Z,12.00
2023-02-15T01:11:22.098Z,11.30
2023-02-15T01:13:53.511Z,11.80
2023-02-15T01:16:22.250Z,12.30
2023-02-15T01:18:50.198Z,12.10
2023-02-15T01:21:19.893Z,11.80
2023-02-15T01:23:48.451Z,12.50
2023-02-15T01:26:17.244Z,12.40
2023-02-15T01:28:45.408Z,12.00
2023-02-15T01:31:15.228Z,12.70
2023-02-15T01:33:43.428Z,13.70
2023-02-15T01:36:11.579Z,13.40
2023-02-15T01:38:40.623Z,13.30
2023-02-15T01:41:20.721Z,14.00
2023-02-15T01:43:50.141Z,12.10
2023-02-15T01:46:23.441Z,14.90
2023-02-15T01:48:57.239Z,14.30
2023-02-15T01:51:30.319Z,14.20
2023-02-15T01:54:03.291Z,13.80
2023-02-15T01:56:35.389Z,15.60
2023-02-15T01:59:10.325Z,15.40
2023-02-15T02:01:39.188Z,14.70
2023-02-15T02:04:14.258Z,15.30
2023-02-15T02:06:42.231Z,15.60
2023-02-15T02:09:10.647Z,15.30
2023-02-15T02:11:41.443Z,14.70
2023-02-15T02:14:09.511Z,14.60
2023-02-15T02:16:47.700Z,14.90
2023-02-15T02:19:48.033Z,14.20
2023-02-15T02:22:50.690Z,15.00
2023-02-15T02:25:53.937Z,13.30
2023-02-15T02:28:47.541Z,14.70
2023-02-15T02:31:40.902Z,13.70
2023-02-15T02:34:15.373Z,13.40
2023-02-15T02:36:50.198Z,14.40
2023-02-15T02:39:26.214Z,13.30
2023-02-15T02:42:02.922Z,12.80
2023-02-15T02:44:38.233Z,13.00
2023-02-15T02:47:12.581Z,11.80
2023-02-15T02:49:42.239Z,12.30
2023-02-15T02:52:36.098Z,13.10
2023-02-15T02:55:07.357Z,12.40
2023-02-15T02:57:37.741Z,13.50
2023-02-15T03:00:09.264Z,13.00
2023-02-15T03:02:42.630Z,14.00
2023-02-15T03:05:16.262Z,12.60
2023-02-15T03:07:50.733Z,11.80
2023-02-15T03:10:21.700Z,12.10
2023-02-15T03:12:53.884Z,13.40
2023-02-15T03:15:23.757Z,12.20
2023-02-15T03:17:56.432Z,13.00
2023-02-15T03:20:29.212Z,11.80
2023-02-15T03:23:01.308Z,12.30
2023-02-15T03:25:34.261Z,12.80
2023-02-15T03:28:05.413Z,12.80
2023-02-15T03:30:35.339Z,12.60
2023-02-15T03:33:05.205Z,13.50
2023-02-15T03:35:40.660Z,13.80
2023-02-15T03:38:10.509Z,13.40
2023-02-15T03:41:01.262Z,12.30
2023-02-15T03:43:45.461Z,11.90
2023-02-15T03:46:20.213Z,13.20
2023-02-15T03:48:52.865Z,13.10
2023-02-15T03:51:38.198Z,13.50
2023-02-15T03:54:10.141Z,12.50
2023-02-15T03:56:41.311Z,14.00
2023-02-15T03:59:27.704Z,13.50
2023-02-15T04:02:10.672Z,14.70
2023-02-15T04:04:42.275Z,16.30
2023-02-15T04:07:10.652Z,15.30
2023-02-15T04:09:56.525Z,14.90
2023-02-15T04:12:24.291Z,14.50
2023-02-15T04:15:10.320Z,14.60
2023-02-15T04:17:38.681Z,14.20
2023-02-15T04:20:28.970Z,22.50
2023-02-15T04:23:15.083Z,30.30
2023-02-15T04:25:42.802Z,18.80
2023-02-15T04:28:10.540Z,17.20
2023-02-15T04:30:38.226Z,15.90
2023-02-15T04:33:05.891Z,15.60
2023-02-15T04:35:34.213Z,15.80
2023-02-15T04:38:02.054Z,15.50
2023-02-15T04:40:30.394Z,15.00
2023-02-15T04:42:58.072Z,14.50
2023-02-15T04:45:25.782Z,14.40
2023-02-15T04:47:53.510Z,16.00
2023-02-15T04:50:21.251Z,15.40
2023-02-15T04:52:48.992Z,14.40
2023-02-15T04:55:17.033Z,14.90
2023-02-15T04:57:44.785Z,15.90
2023-02-15T05:00:14.458Z,15.50
2023-02-15T05:02:42.145Z,15.10
2023-02-15T05:05:13.218Z,15.40
2023-02-15T05:07:41.462Z,14.90
2023-02-15T05:10:10.591Z,15.70
2023-02-15T05:12:38.300Z,16.00
2023-02-15T05:15:07.279Z,15.50
2023-02-15T05:17:35.437Z,15.80
2023-02-15T05:20:03.712Z,16.70
2023-02-15T05:22:31.696Z,16.40
2023-02-15T05:25:17.798Z,15.80
2023-02-15T05:28:05.235Z,14.60
2023-02-15T05:30:33.541Z,14.70
2023-02-15T05:33:01.411Z,13.60
2023-02-15T05:35:29.105Z,14.60
2023-02-15T05:37:57.159Z,15.50
2023-02-15T05:40:24.908Z,14.70
2023-02-15T05:42:57.522Z,14.10
2023-02-15T05:49:52.514Z,15.20
2023-02-15T05:52:20.226Z,14.20
2023-02-15T05:54:47.933Z,16.40
2023-02-15T05:57:15.637Z,15.50
2023-02-15T05:59:43.382Z,16.00
2023-02-15T06:02:12.161Z,14.90
2023-02-15T06:04:39.980Z,15.90
2023-02-15T06:07:08.332Z,16.40
2023-02-15T06:09:36.012Z,16.80
2023-02-15T06:12:04.098Z,15.70
2023-02-15T06:14:31.801Z,15.30
2023-02-15T06:18:14.228Z,15.50
2023-02-15T06:20:41.936Z,13.80
2023-02-15T06:23:09.628Z,15.30
2023-02-15T06:25:39.737Z,15.30
2023-02-15T06:28:08.134Z,16.00
2023-02-15T06:30:35.838Z,16.90
2023-02-15T06:33:03.865Z,15.90
2023-02-15T06:35:31.586Z,16.90
2023-02-15T06:37:59.295Z,15.90
2023-02-15T06:40:27.013Z,16.50
2023-02-15T06:42:54.716Z,15.70
2023-02-15T06:45:22.434Z,16.00
2023-02-15T06:47:50.180Z,15.40
2023-02-15T06:50:18.415Z,16.10
2023-02-15T06:52:46.103Z,15.90
2023-02-15T06:55:13.820Z,15.80
2023-02-15T06:57:41.978Z,17.30
2023-02-15T07:00:12.374Z,15.90
2023-02-15T07:02:40.200Z,15.80
2023-02-15T07:05:08.910Z,17.50
2023-02-15T07:07:36.845Z,16.30
2023-02-15T07:10:06.857Z,16.80
2023-02-15T07:12:44.532Z,16.50
2023-02-15T07:15:17.458Z,15.10
2023-02-15T07:17:45.836Z,16.10
2023-02-15T07:20:17.518Z,14.90
2023-02-15T07:22:45.880Z,15.60
2023-02-15T07:25:14.214Z,15.10
2023-02-15T07:27:42.571Z,14.20
2023-02-15T07:30:14.176Z,15.10
2023-02-15T07:32:56.754Z,14.60
2023-02-15T07:35:25.032Z,15.00
2023-02-15T07:37:53.522Z,14.50
2023-02-15T07:40:23.645Z,15.50
2023-02-15T07:42:54.115Z,15.60
2023-02-15T07:45:23.686Z,16.10
2023-02-15T07:47:51.449Z,15.80
2023-02-15T07:50:19.515Z,14.90
2023-02-15T07:52:47.196Z,15.70
2023-02-15T07:55:15.299Z,14.50
2023-02-15T07:57:44.708Z,14.50
2023-02-15T08:00:14.793Z,14.50
2023-02-15T08:02:43.311Z,14.60
2023-02-15T08:05:11.113Z,14.20
2023-02-15T08:07:38.840Z,14.20
2023-02-15T08:10:08.551Z,15.10
2023-02-15T08:12:36.251Z,14.90
2023-02-15T08:15:04.857Z,15.60
2023-02-15T08:17:36.596Z,14.30
2023-02-15T08:20:06.161Z,15.70
2023-02-15T08:22:34.103Z,15.30
2023-02-15T08:25:01.786Z,14.90
2023-02-15T08:27:29.626Z,14.90
2023-02-15T08:29:57.343Z,15.20
2023-02-15T08:32:25.173Z,14.20
2023-02-15T08:34:52.952Z,14.20
2023-02-15T08:37:20.764Z,13.90
2023-02-15T08:39:48.465Z,14.30
2023-02-15T08:42:16.184Z,13.80
2023-02-15T08:44:44.067Z,13.40
2023-02-15T08:47:11.825Z,13.80
2023-02-15T08:49:39.594Z,12.90
2023-02-15T08:52:07.348Z,13.10
2023-02-15T08:54:35.204Z,11.90
2023-02-15T08:57:02.911Z,11.90
2023-02-15T08:59:30.625Z,13.70
2023-02-15T09:01:58.778Z,12.40
2023-02-15T09:04:26.502Z,13.40
2023-02-15T09:06:55.417Z,13.20
2023-02-15T09:09:23.559Z,14.10
2023-02-15T09:11:57.748Z,13.20
2023-02-15T09:14:27.828Z,13.40
2023-02-15T09:16:56.109Z,13.50
2023-02-15T09:19:24.849Z,14.40
2023-02-15T09:21:52.616Z,13.70
2023-02-15T09:24:20.390Z,14.90
2023-02-15T09:26:49.425Z,14.90
2023-02-15T09:29:18.770Z,15.20
2023-02-15T09:31:49.067Z,13.30
2023-02-15T09:34:19.021Z,12.90
2023-02-15T09:36:48.243Z,13.60
2023-02-15T09:39:17.616Z,13.90
2023-02-15T09:42:07.296Z,15.10
2023-02-15T09:44:49.451Z,13.00
2023-02-15T09:47:42.994Z,13.20
2023-02-15T09:50:18.821Z,12.90
2023-02-15T09:53:06.723Z,14.30
2023-02-15T09:55:44.108Z,14.00
2023-02-15T09:58:24.683Z,13.20
2023-02-15T10:01:00.378Z,13.60
2023-02-15T10:03:43.240Z,14.30
2023-02-15T10:06:32.324Z,13.20
2023-02-15T10:09:16.176Z,13.40
2023-02-15T10:12:00.703Z,12.90
2023-02-15T10:14:58.473Z,14.90
2023-02-15T10:17:43.588Z,13.00
2023-02-15T10:20:25.040Z,15.40
2023-02-15T10:23:15.394Z,13.50
2023-02-15T10:25:50.948Z,13.40
2023-02-15T10:28:20.835Z,14.50
2023-02-15T10:30:50.862Z,14.10
2023-02-15T10:33:32.853Z,14.50
2023-02-15T10:36:12.359Z,14.10
2023-02-15T10:38:43.409Z,13.70
2023-02-15T10:41:34.666Z,15.80
2023-02-15T10:44:18.773Z,16.10
2023-02-15T10:47:04.235Z,16.30
2023-02-15T10:49:54.018Z,14.60
2023-02-15T10:52:33.868Z,15.30
2023-02-15T10:55:12.834Z,14.20
2023-02-15T10:57:53.441Z,15.60
2023-02-15T11:00:29.479Z,15.90
2023-02-15T11:03:27.806Z,15.50
2023-02-15T11:06:04.003Z,14.70
2023-02-15T11:08:36.640Z,14.30
2023-02-15T11:11:09.289Z,14.40
2023-02-15T11:13:44.989Z,14.30
2023-02-15T11:16:18.962Z,15.20
2023-02-15T11:18:52.080Z,14.60
2023-02-15T11:21:23.538Z,16.00
2023-02-15T11:23:53.318Z,16.30
2023-02-15T11:26:29.923Z,16.20
2023-02-15T11:29:01.100Z,14.90
2023-02-15T11:31:44.317Z,16.20
2023-02-15T11:34:19.801Z,15.70
2023-02-15T11:36:51.188Z,16.10
2023-02-15T11:39:22.344Z,15.60
2023-02-15T11:41:54.461Z,15.80
2023-02-15T11:46:52.523Z,14.60
2023-02-15T11:49:30.991Z,14.90
2023-02-15T11:54:30.411Z,14.70
2023-02-15T11:57:11.223Z,15.80
2023-02-15T11:59:42.856Z,14.70
2023-02-15T12:02:17.852Z,16.90
2023-02-15T12:04:52.801Z,15.80
2023-02-15T12:07:25.988Z,15.80
2023-02-15T12:10:01.193Z,16.20
2023-02-15T12:12:31.136Z,15.10
2023-02-15T12:15:00.252Z,14.60
2023-02-15T12:17:30.462Z,13.50
2023-02-15T12:20:01.884Z,15.10
2023-02-15T12:22:32.389Z,14.40
2023-02-15T12:25:02.780Z,14.80
2023-02-15T12:27:33.386Z,15.20
2023-02-15T12:30:05.754Z,16.00
2023-02-15T12:32:36.756Z,15.80
2023-02-15T12:35:14.961Z,17.40
2023-02-15T12:37:55.268Z,15.90
2023-02-15T12:40:26.240Z,16.70
2023-02-15T12:42:54.142Z,16.00
2023-02-15T12:45:25.614Z,17.40
2023-02-15T12:48:16.104Z,14.80
2023-02-15T12:50:45.075Z,14.30
2023-02-15T12:53:19.422Z,14.90
2023-02-15T12:55:55.687Z,15.10
2023-02-15T12:58:25.805Z,15.70
2023-02-15T13:01:12.561Z,16.10
2023-02-15T13:03:56.670Z,14.50
2023-02-15T13:06:24.725Z,16.30
2023-02-15T13:08:54.610Z,15.60
2023-02-15T13:11:26.991Z,16.30
2023-02-15T13:13:56.838Z,15.70
2023-02-15T13:16:32.488Z,15.50
2023-02-15T13:19:06.990Z,15.60
2023-02-15T13:21:39.423Z,15.50
2023-02-15T13:24:16.361Z,17.00
2023-02-15T13:26:47.410Z,16.60
2023-02-15T13:29:23.024Z,15.70
2023-02-15T13:31:53.544Z,16.70
2023-02-15T13:34:26.273Z,15.80
2023-02-15T13:37:05.513Z,14.30
2023-02-15T13:39:42.122Z,15.90
2023-02-15T13:42:21.438Z,16.20
2023-02-15T13:45:09.095Z,15.30
2023-02-15T13:47:47.192Z,14.90
2023-02-15T13:50:46.302Z,16.10
2023-02-15T13:53:32.072Z,15.90
2023-02-15T13:56:08.444Z,16.20
2023-02-15T13:59:01.821Z,16.20
2023-02-15T14:01:40.442Z,16.40
2023-02-15T14:04:33.764Z,16.10
2023-02-15T14:07:36.013Z,15.60
2023-02-15T14:10:34.997Z,16.60
2023-02-15T14:13:27.248Z,17.00
2023-02-15T14:16:01.318Z,16.90
2023-02-15T14:18:39.842Z,16.50
2023-02-15T14:21:13.509Z,14.40
2023-02-15T14:23:55.174Z,16.80
2023-02-15T14:26:34.730Z,15.70
2023-02-15T14:29:16.164Z,16.10
2023-02-15T14:31:47.812Z,16.50
2023-02-15T14:34:22.660Z,16.50
2023-02-15T14:36:51.666Z,16.50
2023-02-15T14:39:48.009Z,15.80
2023-02-15T14:42:26.290Z,15.50
2023-02-15T14:45:02.506Z,16.30
2023-02-15T14:47:37.078Z,16.00
2023-02-15T14:50:39.820Z,17.70
2023-02-15T14:53:38.509Z,16.30
2023-02-15T14:56:32.637Z,15.90
2023-02-15T14:59:13.506Z,16.40
2023-02-15T15:01:43.414Z,17.20
2023-02-15T15:04:15.181Z,16.50
2023-02-15T15:06:44.370Z,15.80
2023-02-15T15:09:19.733Z,16.80
2023-02-15T15:11:48.928Z,16.60
2023-02-15T15:14:39.663Z,16.30
2023-02-15T15:20:07.905Z,13.60
2023-02-15T15:22:37.105Z,14.90
2023-02-15T15:25:10.082Z,16.30
2023-02-15T15:27:53.674Z,16.50
2023-02-15T15:30:52.775Z,15.20
2023-02-15T15:34:19.408Z,16.20
2023-02-15T15:37:28.330Z,15.70
2023-02-15T15:40:31.605Z,15.70
2023-02-15T15:43:28.295Z,15.40
2023-02-15T15:46:31.018Z,15.70
2023-02-15T15:49:04.330Z,17.60
2023-02-15T15:51:34.224Z,17.20
2023-02-15T15:54:04.216Z,15.70
2023-02-15T15:56:35.680Z,16.10
2023-02-15T15:59:06.340Z,18.00
2023-02-15T16:01:39.173Z,16.20
2023-02-15T16:04:12.782Z,16.80
2023-02-15T16:06:41.828Z,16.50
2023-02-15T16:09:19.783Z,17.60
2023-02-15T16:11:50.431Z,17.00
2023-02-15T16:14:26.857Z,15.90
2023-02-15T16:16:57.045Z,17.70
2023-02-15T16:19:28.963Z,16.60
2023-02-15T16:21:59.843Z,16.10
2023-02-15T16:24:48.512Z,16.40
2023-02-15T16:27:35.557Z,16.00
2023-02-15T16:30:22.421Z,17.30
2023-02-15T16:32:53.312Z,16.80
2023-02-15T16:35:22.842Z,16.20
2023-02-15T16:37:50.595Z,16.70
2023-02-15T16:40:41.950Z,16.30
2023-02-15T16:43:16.552Z,16.40
2023-02-15T16:45:45.355Z,16.20
2023-02-15T16:48:18.963Z,17.50
2023-02-15T16:50:51.753Z,18.30
2023-02-15T16:53:23.220Z,17.40
2023-02-15T16:55:54.786Z,17.40
2023-02-15T16:58:31.745Z,18.50
2023-02-15T17:01:02.221Z,19.00
2023-02-15T17:03:30.838Z,17.80
2023-02-15T17:06:00.158Z,19.20
2023-02-15T17:08:31.165Z,18.50
2023-02-15T17:11:11.452Z,18.80
2023-02-15T17:13:39.971Z,19.60
2023-02-15T17:16:33.439Z,19.40
2023-02-15T17:19:02.833Z,18.80
2023-02-15T17:21:37.938Z,19.40
2023-02-15T17:24:06.914Z,18.60
2023-02-15T17:26:37.561Z,18.90
2023-02-15T17:29:20.889Z,18.10
2023-02-15T17:31:51.028Z,19.60
2023-02-15T17:34:50.384Z,18.60
2023-02-15T17:37:27.832Z,20.50
2023-02-15T17:39:59.237Z,18.50
2023-02-15T17:42:27.605Z,18.40
2023-02-15T17:44:55.518Z,20.60
2023-02-15T17:47:27.041Z,20.80
2023-02-15T17:49:55.106Z,20.20
2023-02-15T17:52:23.834Z,20.00
2023-02-15T17:55:09.886Z,20.00
2023-02-15T17:57:38.138Z,20.00
2023-02-15T18:00:26.894Z,20.90
2023-02-15T18:03:12.932Z,22.40
2023-02-15T18:05:59.086Z,20.00
2023-02-15T18:08:46.781Z,21.70
2023-02-15T18:11:32.815Z,21.30
2023-02-15T18:14:01.091Z,21.70
2023-02-15T18:16:33.399Z,23.60
2023-02-15T18:19:04.126Z,23.80
2023-02-15T18:21:33.250Z,22.60
2023-02-15T18:24:00.997Z,23.90
2023-02-15T18:26:29.495Z,24.50
2023-02-15T18:28:57.219Z,24.20
2023-02-15T18:31:25.619Z,24.70
2023-02-15T18:33:57.619Z,24.30
2023-02-15T18:36:31.888Z,25.40
2023-02-15T18:39:02.374Z,24.70
2023-02-15T18:41:32.800Z,25.40
2023-02-15T18:44:00.508Z,24.40
2023-02-15T18:46:28.343Z,26.40
2023-02-15T18:48:56.034Z,25.50
2023-02-15T18:51:24.171Z,26.40
2023-02-15T18:53:53.651Z,27.40
2023-02-15T18:56:23.044Z,26.10
2023-02-15T18:58:51.089Z,24.90
2023-02-15T19:01:20.922Z,26.70
2023-02-15T19:03:50.662Z,25.10
2023-02-15T19:06:21.141Z,27.90
2023-02-15T19:08:50.889Z,28.60
2023-02-15T19:11:21.744Z,26.90
2023-02-15T19:13:50.926Z,27.10
2023-02-15T19:16:28.090Z,26.60
2023-02-15T19:18:55.906Z,28.50
2023-02-15T19:21:24.880Z,26.70
2023-02-15T19:23:56.289Z,26.80
2023-02-15T19:26:39.685Z,28.20
2023-02-15T19:29:13.766Z,27.40
2023-02-15T19:31:41.834Z,28.30
2023-02-15T19:34:15.604Z,27.40
2023-02-15T19:36:45.177Z,26.50
2023-02-15T19:39:24.240Z,30.00
2023-02-15T19:41:52.500Z,28.10
2023-02-15T19:44:20.672Z,29.20
2023-02-15T19:46:48.437Z,29.30
2023-02-15T19:49:16.443Z,30.30
2023-02-15T19:51:44.275Z,29.50
2023-02-15T19:54:27.938Z,29.20
2023-02-15T19:56:56.194Z,28.20
2023-02-15T19:59:25.818Z,29.00
2023-02-15T20:01:53.984Z,28.50
2023-02-15T20:04:22.272Z,28.30
2023-02-15T20:06:51.509Z,29.00
2023-02-15T20:09:23.286Z,28.20
2023-02-15T20:11:51.665Z,41.30
2023-02-15T20:14:20.127Z,37.50
2023-02-15T20:16:48.399Z,30.40
2023-02-15T20:19:16.149Z,28.60
2023-02-15T20:21:50.907Z,28.00
2023-02-15T20:24:21.467Z,30.00
2023-02-15T20:26:49.225Z,30.90
2023-02-15T20:29:18.535Z,31.30
2023-02-15T20:31:46.489Z,31.60
2023-02-15T20:34:14.355Z,28.70
2023-02-15T20:36:42.250Z,31.80
2023-02-15T20:39:14.578Z,28.80
2023-02-15T20:41:47.094Z,30.10
2023-02-15T20:44:21.190Z,31.00
2023-02-15T20:46:49.770Z,32.30
2023-02-15T20:49:17.889Z,29.90
2023-02-15T20:51:47.381Z,29.40
2023-02-15T20:54:17.891Z,30.10
2023-02-15T20:56:45.774Z,31.80
2023-02-15T20:59:25.177Z,29.30
2023-02-15T21:01:57.807Z,29.20
2023-02-15T21:04:30.064Z,27.40
2023-02-15T21:06:58.491Z,28.40
2023-02-15T21:09:26.228Z,29.90
2023-02-15T21:11:58.929Z,30.20
2023-02-15T21:14:28.317Z,31.10
2023-02-15T21:16:56.040Z,28.90
2023-02-15T21:19:24.686Z,28.10
2023-02-15T21:21:53.802Z,28.90
2023-02-15T21:24:24.241Z,28.90
2023-02-15T21:26:52.383Z,27.90
2023-02-15T21:29:22.427Z,31.10
2023-02-15T21:31:50.549Z,27.80
2023-02-15T21:34:18.587Z,28.10
2023-02-15T21:36:49.894Z,25.10
2023-02-15T21:39:20.456Z,28.80
2023-02-15T21:42:07.791Z,27.60
2023-02-15T21:44:54.370Z,26.20
2023-02-15T21:47:42.682Z,26.10
2023-02-15T21:50:31.763Z,26.40
2023-02-15T21:52:59.799Z,27.20
2023-02-15T21:55:27.646Z,26.10
2023-02-15T21:57:55.330Z,27.20
2023-02-15T22:00:24.393Z,25.90
2023-02-15T22:02:54.695Z,25.40
2023-02-15T22:05:24.938Z,29.60
2023-02-15T22:07:52.634Z,27.50
2023-02-15T22:10:22.720Z,27.70
2023-02-15T22:12:53.538Z,28.50
2023-02-15T22:15:24.296Z,28.90
2023-02-15T22:17:52.333Z,26.70
2023-02-15T22:20:23.782Z,28.40
2023-02-15T22:22:52.314Z,27.80
2023-02-15T22:25:24.196Z,26.60
2023-02-15T22:27:53.983Z,27.70
2023-02-15T22:30:27.960Z,28.10
2023-02-15T22:32:57.485Z,26.90
2023-02-15T22:35:27.841Z,28.50
2023-02-15T22:37:56.061Z,28.80
2023-02-15T22:40:29.044Z,31.00
2023-02-15T22:42:59.400Z,28.90
2023-02-15T22:45:27.692Z,28.70
2023-02-15T22:47:58.198Z,29.30
2023-02-15T22:50:28.846Z,28.30
2023-02-15T22:52:58.713Z,28.40
2023-02-15T22:55:30.478Z,28.90
2023-02-15T22:57:58.825Z,28.10
2023-02-15T23:00:29.964Z,28.70
2023-02-15T23:02:57.738Z,28.30
2023-02-15T23:05:27.770Z,28.10
2023-02-15T23:07:56.439Z,26.70
2023-02-15T23:10:26.176Z,26.30
2023-02-15T23:13:14.209Z,27.30
2023-02-15T23:15:48.104Z,26.90
2023-02-15T23:18:19.728Z,27.30
2023-02-15T23:20:50.339Z,25.50
2023-02-15T23:23:20.382Z,25.30
2023-02-15T23:25:48.245Z,25.50
2023-02-15T23:28:21.687Z,27.10
2023-02-15T23:30:49.889Z,28.10
2023-02-15T23:33:20.527Z,25.40
2023-02-15T23:35:48.600Z,40.70
2023-02-15T23:38:22.239Z,32.70
2023-02-15T23:41:12.038Z,26.80
2023-02-15T23:43:42.700Z,26.30
2023-02-15T23:46:22.139Z,24.20
2023-02-15T23:48:50.436Z,25.50
2023-02-15T23:51:18.584Z,27.60
2023-02-15T23:53:46.305Z,27.90
2023-02-15T23:56:15.359Z,24.20
2023-02-15T23:58:45.472Z,26.00
